Time;durP1;ratioP1;P1;durP2;ratioP2;P2;SDS_P1;SDS_P2;PMS_P1;PMS_P2;Temp;Humidity;BMP_temperature;BMP_pressure;BME280_temperature;BME280_humidity;BME280_pressure;Samples;Min_cycle;Max_cycle;Signal;HPM_P1;HPM_P2
2022/06/13 00:01:42;;;;;;;6.57;3.08;;;;;;;15.04;64.40;101353.97;4995019;28;21221;-67
2022/06/13 00:04:08;;;;;;;4.60;2.55;;;;;;;15.02;64.27;101347.97;4967094;28;20573;-67
2022/06/13 00:06:34;;;;;;;4.35;2.20;;;;;;;15.05;63.98;101354.81;5010267;27;20013;-68
2022/06/13 00:08:59;;;;;;;2.45;2.25;;;;;;;15.10;63.82;101348.03;5012379;27;20984;-67
2022/06/13 00:11:26;;;;;;;3.17;2.20;;;;;;;15.07;63.17;101345.69;5011705;28;20021;-67
2022/06/13 00:13:53;;;;;;;3.53;2.42;;;;;;;15.15;63.21;101346.75;4979592;28;21065;-68
2022/06/13 00:16:18;;;;;;;6.13;2.45;;;;;;;15.16;63.33;101349.28;4992023;28;20061;-67
2022/06/13 00:18:47;;;;;;;5.03;2.60;;;;;;;15.00;64.36;101349.09;4986645;27;20039;-67
2022/06/13 00:21:14;;;;;;;2.85;1.85;;;;;;;14.93;64.99;101348.84;4990648;28;20021;-67
2022/06/13 00:23:40;;;;;;;9.90;2.47;;;;;;;14.83;66.00;101340.09;4994463;28;20080;-67
2022/06/13 00:26:05;;;;;;;3.40;2.10;;;;;;;14.64;67.02;101336.56;4966866;28;20009;-67
2022/06/13 00:28:31;;;;;;;3.80;2.00;;;;;;;14.61;66.69;101334.16;5033858;28;20009;-70
2022/06/13 00:30:56;;;;;;;3.15;1.92;;;;;;;14.60;66.74;101330.66;5014180;28;20503;-67
2022/06/13 00:33:21;;;;;;;3.03;2.15;;;;;;;14.66;66.55;101321.25;4968004;28;20010;-67
2022/06/13 00:35:47;;;;;;;3.65;2.03;;;;;;;14.44;67.19;101325.16;4988453;28;20493;-67
2022/06/13 00:38:12;;;;;;;8.45;2.22;;;;;;;14.32;67.37;101319.16;5008602;27;20017;-67
2022/06/13 00:40:38;;;;;;;5.68;2.20;;;;;;;14.23;68.02;101314.75;4989998;28;20010;-67
2022/06/13 00:43:05;;;;;;;3.38;1.77;;;;;;;14.23;68.26;101312.91;4988024;28;20181;-67
2022/06/13 00:45:35;;;;;;;5.40;2.20;;;;;;;14.14;68.29;101315.59;5006248;27;20029;-68
2022/06/13 00:48:00;;;;;;;5.32;2.38;;;;;;;14.25;68.44;101313.56;4975121;28;20070;-67
2022/06/13 00:50:56;;;;;;;6.10;2.17;;;;;;;14.07;68.33;101310.00;4990073;28;20301;-68
2022/06/13 00:53:24;;;;;;;5.03;2.30;;;;;;;14.17;68.54;101317.97;4995979;28;20013;-68
2022/06/13 00:55:56;;;;;;;4.25;2.38;;;;;;;14.21;67.93;101314.03;4991931;28;20443;-68
2022/06/13 00:58:21;;;;;;;4.15;2.30;;;;;;;14.14;67.93;101318.25;4988362;28;20114;-69
2022/06/13 01:00:48;;;;;;;4.88;2.40;;;;;;;13.98;68.47;101321.56;4973773;28;21047;-67
2022/06/13 01:03:14;;;;;;;3.03;2.42;;;;;;;13.70;68.91;101322.28;4975966;28;20393;-67
2022/06/13 01:05:40;;;;;;;6.20;2.35;;;;;;;13.51;69.78;101314.38;4962339;27;20025;-68
2022/06/13 01:08:07;;;;;;;5.43;2.45;;;;;;;13.39;70.44;101311.00;4975117;28;20020;-68
2022/06/13 01:13:18;;;;;;;5.28;2.55;;;;;;;13.27;71.24;101312.97;4978343;28;20128;-67
2022/06/13 01:15:53;;;;;;;5.20;2.40;;;;;;;13.34;71.08;101316.72;4992835;27;20441;-67
2022/06/13 01:18:49;;;;;;;3.97;2.22;;;;;;;13.19;71.95;101318.13;5009255;28;20061;-67
2022/06/13 01:21:17;;;;;;;7.25;2.50;;;;;;;13.10;72.13;101317.16;4975123;28;20040;-67
2022/06/13 01:24:15;;;;;;;5.30;2.75;;;;;;;12.98;72.79;101313.78;5009214;28;20051;-67
2022/06/13 01:26:59;;;;;;;4.18;2.42;;;;;;;12.92;73.27;101324.97;4994485;28;20127;-67
2022/06/13 01:29:45;;;;;;;4.30;2.50;;;;;;;12.90;73.20;101313.63;5012143;27;20778;-67
2022/06/13 01:32:13;;;;;;;3.92;2.40;;;;;;;12.81;73.69;101317.94;4989946;28;20032;-67
2022/06/13 01:35:05;;;;;;;3.63;2.40;;;;;;;12.96;73.07;101314.88;4980872;28;20047;-67
2022/06/13 01:37:36;;;;;;;3.85;2.30;;;;;;;12.79;73.55;101322.56;4969728;28;20027;-68
2022/06/13 01:40:07;;;;;;;3.95;2.40;;;;;;;12.78;73.88;101323.53;5011641;28;20121;-67
2022/06/13 01:42:47;;;;;;;5.97;2.40;;;;;;;12.74;73.98;101323.97;4988751;28;20072;-66
2022/06/13 01:45:22;;;;;;;6.45;2.33;;;;;;;12.74;73.88;101326.63;4991759;28;20260;-67
2022/06/13 01:48:42;;;;;;;4.00;2.58;;;;;;;12.85;73.60;101331.81;4988369;28;20010;-67
2022/06/13 01:51:17;;;;;;;5.75;2.50;;;;;;;12.74;73.63;101335.41;4926660;28;20098;-67
2022/06/13 01:53:46;;;;;;;5.88;2.33;;;;;;;12.89;73.06;101342.00;4990318;28;20911;-69
2022/06/13 01:56:13;;;;;;;4.50;2.58;;;;;;;12.77;73.05;101336.97;4989032;28;21021;-67
2022/06/13 01:58:59;;;;;;;5.90;2.40;;;;;;;12.76;73.35;101344.09;4971328;28;20075;-67
2022/06/13 02:01:24;;;;;;;4.28;2.30;;;;;;;12.63;73.82;101341.66;4987153;28;20601;-68
2022/06/13 02:03:58;;;;;;;4.40;2.47;;;;;;;12.53;74.33;101349.59;4985633;28;20050;-67
2022/06/13 02:06:29;;;;;;;7.95;2.70;;;;;;;12.49;74.56;101347.34;4968082;28;20018;-67
2022/06/13 02:09:00;;;;;;;4.95;2.70;;;;;;;12.73;73.84;101356.78;4966155;28;21021;-67
2022/06/13 02:11:33;;;;;;;4.88;2.70;;;;;;;12.87;73.39;101359.06;4990601;28;20034;-67
2022/06/13 02:13:58;;;;;;;5.05;3.03;;;;;;;12.68;73.70;101352.72;4994755;28;20009;-67
2022/06/13 02:16:48;;;;;;;4.57;2.50;;;;;;;12.55;74.08;101349.50;4980942;28;20122;-67
2022/06/13 02:19:32;;;;;;;3.20;2.30;;;;;;;12.50;74.69;101346.38;4989090;28;20089;-67
2022/06/13 02:22:27;;;;;;;4.38;2.55;;;;;;;12.37;75.11;101347.44;4971785;28;21035;-67
2022/06/13 02:25:18;;;;;;;5.43;2.80;;;;;;;12.28;75.57;101337.66;4945249;28;20030;-68
2022/06/13 02:27:48;;;;;;;3.95;2.47;;;;;;;12.10;76.19;101341.88;4978823;28;20065;-67
2022/06/13 02:30:17;;;;;;;4.03;2.40;;;;;;;11.98;76.58;101333.16;4975419;27;20918;-67
2022/06/13 02:33:12;;;;;;;4.00;2.40;;;;;;;12.05;76.58;101330.84;4970042;28;20486;-67
2022/06/13 02:35:46;;;;;;;3.95;2.60;;;;;;;11.93;77.04;101328.22;4977682;27;20047;-66
2022/06/13 02:38:19;;;;;;;5.80;2.40;;;;;;;11.84;77.40;101339.63;4972013;28;20018;-67
2022/06/13 02:40:50;;;;;;;3.95;2.75;;;;;;;12.12;76.66;101339.94;4975073;28;20024;-68
2022/06/13 02:43:22;;;;;;;2.67;2.38;;;;;;;12.33;75.94;101346.03;4957225;28;20111;-67
2022/06/13 02:46:06;;;;;;;2.83;2.50;;;;;;;12.28;75.92;101344.75;4969816;28;20022;-67
2022/06/13 02:48:36;;;;;;;2.78;2.53;;;;;;;12.24;75.90;101349.50;4976837;28;20196;-67
2022/06/13 02:51:01;;;;;;;2.85;2.53;;;;;;;12.08;76.67;101338.53;4990983;28;20053;-67
2022/06/13 02:53:35;;;;;;;5.88;2.50;;;;;;;11.95;77.34;101325.47;4975938;28;20524;-66
2022/06/13 02:56:11;;;;;;;2.45;2.25;;;;;;;11.85;77.85;101325.41;4959575;28;20026;-67
2022/06/13 02:58:41;;;;;;;2.90;2.63;;;;;;;11.84;78.09;101318.41;4986874;28;20035;-66
2022/06/13 03:01:12;;;;;;;4.80;2.60;;;;;;;11.81;78.26;101329.28;4983148;28;20018;-67
2022/06/13 03:04:07;;;;;;;3.38;2.97;;;;;;;11.84;78.25;101321.91;4984299;28;20978;-67
2022/06/13 03:07:09;;;;;;;3.80;2.45;;;;;;;11.81;78.17;101318.66;4969875;28;20680;-67
2022/06/13 03:10:04;;;;;;;2.90;2.58;;;;;;;11.77;78.35;101319.91;4983008;28;20873;-67
2022/06/13 03:12:59;;;;;;;3.17;2.83;;;;;;;11.92;77.96;101318.59;4979851;28;20340;-66
2022/06/13 03:15:31;;;;;;;4.70;2.72;;;;;;;11.93;77.97;101327.38;4988867;28;20025;-67
2022/06/13 03:17:56;;;;;;;2.50;2.30;;;;;;;12.14;77.21;101330.03;4975571;28;20014;-67
2022/06/13 03:20:28;;;;;;;4.63;2.50;;;;;;;12.17;76.83;101329.78;4992894;28;20890;-67
2022/06/13 03:22:58;;;;;;;3.22;2.42;;;;;;;12.08;77.41;101333.22;4969507;28;20277;-67
2022/06/13 03:25:47;;;;;;;3.95;2.47;;;;;;;12.19;76.64;101341.91;4971947;28;20022;-67
2022/06/13 03:28:18;;;;;;;5.82;2.70;;;;;;;12.08;76.73;101330.56;4980040;28;20017;-68
2022/06/13 03:30:52;;;;;;;4.05;3.00;;;;;;;11.88;77.60;101338.38;4987812;28;20078;-68
2022/06/13 03:33:40;;;;;;;3.13;2.83;;;;;;;11.78;78.55;101346.28;4974143;28;20221;-67
2022/06/13 03:36:47;;;;;;;4.05;2.70;;;;;;;11.89;78.67;101353.34;4971737;28;20175;-67
2022/06/13 03:39:16;;;;;;;3.55;2.70;;;;;;;12.05;78.48;101358.19;4989197;28;20431;-67
2022/06/13 03:41:47;;;;;;;3.95;2.88;;;;;;;12.08;78.16;101362.41;4999262;28;20037;-68
2022/06/13 03:44:21;;;;;;;4.75;2.53;;;;;;;12.05;78.22;101367.97;4957207;28;20026;-67
2022/06/13 03:46:52;;;;;;;4.35;2.80;;;;;;;11.94;78.95;101364.41;4968875;28;20233;-67
2022/06/13 03:49:33;;;;;;;2.58;2.38;;;;;;;11.98;79.20;101357.88;4971024;28;20026;-67
2022/06/13 03:52:00;;;;;;;9.60;2.92;;;;;;;11.94;79.52;101359.09;4985329;28;20067;-67
2022/06/13 03:54:34;;;;;;;2.75;2.28;;;;;;;11.90;80.00;101365.63;4976451;28;20044;-67
2022/06/13 03:57:08;;;;;;;5.88;2.60;;;;;;;11.94;79.71;101358.28;4992605;28;20709;-68
2022/06/13 03:59:44;;;;;;;5.90;2.50;;;;;;;11.93;80.28;101360.06;4972489;28;20064;-67
2022/06/13 04:02:11;;;;;;;2.67;2.50;;;;;;;11.88;80.50;101362.25;4987007;28;20050;-67
2022/06/13 04:04:44;;;;;;;7.68;2.75;;;;;;;11.86;80.87;101353.59;4959610;28;20030;-70
2022/06/13 04:07:10;;;;;;;3.50;2.78;;;;;;;11.91;80.89;101356.69;4986433;28;20112;-69
2022/06/13 04:09:41;;;;;;;4.65;2.65;;;;;;;11.86;81.08;101361.56;4971959;28;20045;-65
2022/06/13 04:12:16;;;;;;;3.05;2.40;;;;;;;11.93;81.12;101352.09;4972888;28;20785;-67
2022/06/13 04:15:00;;;;;;;3.65;2.50;;;;;;;12.00;80.96;101350.63;4972597;28;20017;-67
2022/06/13 04:17:31;;;;;;;2.70;2.45;;;;;;;12.03;80.79;101342.41;4977611;28;20041;-67
2022/06/13 04:20:16;;;;;;;3.67;2.63;;;;;;;12.03;81.20;101350.38;4970595;28;20022;-66
2022/06/13 04:22:55;;;;;;;2.60;2.40;;;;;;;12.03;81.20;101345.06;4992930;28;20494;-67
2022/06/13 04:25:24;;;;;;;3.92;2.53;;;;;;;12.01;81.31;101341.72;4987662;28;20081;-66
2022/06/13 04:27:58;;;;;;;3.05;2.50;;;;;;;12.00;81.47;101344.47;4987059;28;20355;-67
2022/06/13 04:30:26;;;;;;;4.65;2.35;;;;;;;12.09;81.60;101354.31;4973576;28;20273;-67
2022/06/13 04:33:04;;;;;;;2.88;2.65;;;;;;;12.14;81.51;101357.41;4967684;28;20685;-68
2022/06/13 04:35:33;;;;;;;3.08;2.38;;;;;;;12.41;80.69;101355.13;4977028;28;20026;-66
2022/06/13 04:38:00;;;;;;;3.83;2.60;;;;;;;12.42;81.13;101359.47;4988247;28;20020;-68
2022/06/13 04:40:26;;;;;;;4.78;2.45;;;;;;;12.39;81.07;101357.09;4975032;27;20166;-68
2022/06/13 04:42:51;;;;;;;2.72;2.53;;;;;;;12.34;81.66;101358.34;4983838;28;20630;-67
2022/06/13 04:45:20;;;;;;;4.13;2.90;;;;;;;12.33;81.58;101356.66;4987181;28;20033;-68
2022/06/13 04:47:47;;;;;;;3.28;2.92;;;;;;;12.40;81.70;101351.66;4963532;28;20025;-70
2022/06/13 04:50:15;;;;;;;4.07;2.83;;;;;;;12.48;81.55;101351.84;4974497;27;20116;-68
2022/06/13 04:52:40;;;;;;;5.00;2.55;;;;;;;12.51;81.80;101345.41;4970831;28;20009;-69
2022/06/13 04:55:09;;;;;;;3.25;2.95;;;;;;;12.57;81.29;101352.00;4977292;28;20145;-68
2022/06/13 04:57:35;;;;;;;3.40;2.75;;;;;;;12.58;80.49;101345.69;4972522;28;20002;-69
2022/06/13 05:00:05;;;;;;;2.78;2.58;;;;;;;12.68;80.22;101352.72;4972510;28;20014;-68
2022/06/13 05:02:42;;;;;;;7.68;2.90;;;;;;;12.84;79.61;101356.69;4977009;28;20041;-68
2022/06/13 05:05:22;;;;;;;6.90;2.85;;;;;;;12.93;79.04;101353.22;4975665;28;20902;-69
2022/06/13 05:07:47;;;;;;;5.00;3.22;;;;;;;13.03;78.81;101362.03;4991422;28;20021;-69
2022/06/13 05:10:14;;;;;;;5.93;2.60;;;;;;;13.13;79.07;101364.69;4974746;27;20492;-68
2022/06/13 05:12:41;;;;;;;3.67;2.53;;;;;;;13.21;78.58;101374.63;4977266;28;20947;-68
2022/06/13 05:15:12;;;;;;;7.05;3.35;;;;;;;13.22;77.75;101368.34;4989684;28;20033;-67
2022/06/13 05:17:58;;;;;;;6.88;3.22;;;;;;;13.23;77.79;101367.38;4976643;28;20267;-67
2022/06/13 05:20:45;;;;;;;6.68;3.13;;;;;;;13.33;77.61;101376.19;4987283;27;20032;-67
2022/06/13 05:23:25;;;;;;;4.47;2.88;;;;;;;13.43;77.51;101383.38;4989960;28;20042;-67
2022/06/13 05:25:53;;;;;;;3.20;2.83;;;;;;;13.36;78.08;101425.59;4987771;28;20083;-67
2022/06/13 05:28:21;;;;;;;3.97;2.92;;;;;;;13.40;77.53;101451.78;4976257;28;20081;-69
2022/06/13 05:30:48;;;;;;;5.57;3.90;;;;;;;13.46;78.15;101428.28;4994295;28;20021;-67
2022/06/13 05:33:16;;;;;;;18.95;4.28;;;;;;;13.32;80.71;101406.38;4962292;28;20010;-67
2022/06/13 05:35:45;;;;;;;11.77;4.07;;;;;;;13.38;82.13;101411.19;4966960;28;20913;-67
2022/06/13 05:38:34;;;;;;;7.25;4.40;;;;;;;13.54;84.71;101415.13;4971381;28;20270;-67
2022/06/13 05:40:59;;;;;;;5.75;4.50;;;;;;;13.67;85.66;101413.00;4973905;28;20025;-68
2022/06/13 05:43:25;;;;;;;6.97;4.45;;;;;;;13.48;85.99;101418.31;4985484;28;20050;-68
2022/06/13 05:45:50;;;;;;;5.93;4.30;;;;;;;13.41;86.53;101420.72;4965945;28;20342;-67
2022/06/13 05:48:17;;;;;;;6.78;4.32;;;;;;;13.35;86.30;101422.13;4972576;28;19999;-67
2022/06/13 05:50:42;;;;;;;5.75;3.80;;;;;;;13.30;86.51;101419.00;4970699;28;20158;-67
2022/06/13 05:53:11;;;;;;;7.47;4.22;;;;;;;13.37;87.23;101414.84;4973262;28;20277;-67
2022/06/13 05:55:36;;;;;;;5.63;3.60;;;;;;;13.54;86.98;101418.63;4971911;28;20288;-67
2022/06/13 05:58:02;;;;;;;7.00;4.38;;;;;;;13.71;86.39;101406.44;4986951;28;20014;-67
2022/06/13 06:00:30;;;;;;;7.93;4.47;;;;;;;13.86;86.00;101416.63;4986231;28;20025;-68
2022/06/13 06:02:55;;;;;;;8.43;4.50;;;;;;;13.81;86.01;101416.25;4963696;28;20301;-68
2022/06/13 06:05:21;;;;;;;10.55;5.13;;;;;;;13.94;85.59;101415.94;4951770;28;21030;-67
2022/06/13 06:07:46;;;;;;;7.45;5.13;;;;;;;14.01;85.87;101417.06;4986820;28;20018;-67
2022/06/13 06:10:19;;;;;;;11.32;5.10;;;;;;;14.15;83.71;101419.25;4969417;28;20773;-66
2022/06/13 06:12:45;;;;;;;8.45;5.05;;;;;;;14.18;83.92;101424.28;4948726;28;20080;-68
2022/06/13 06:15:11;;;;;;;7.95;5.15;;;;;;;14.42;83.03;101422.97;4951063;28;20015;-68
2022/06/13 06:17:36;;;;;;;9.30;5.45;;;;;;;14.59;81.61;101424.88;4965616;28;21053;-67
2022/06/13 06:20:02;;;;;;;8.60;5.13;;;;;;;14.65;80.89;101422.63;4987320;28;21042;-68
2022/06/13 06:22:28;;;;;;;9.65;5.03;;;;;;;14.47;81.09;101423.38;4970583;28;20025;-68
2022/06/13 06:24:53;;;;;;;8.65;5.30;;;;;;;14.54;81.82;101428.97;4968269;28;20026;-68
2022/06/13 06:27:19;;;;;;;7.75;5.25;;;;;;;14.58;83.45;101425.84;4989431;28;20507;-68
2022/06/13 06:29:44;;;;;;;9.50;5.13;;;;;;;14.68;83.87;101430.31;4975117;28;20026;-68
2022/06/13 06:32:10;;;;;;;9.70;5.05;;;;;;;14.67;82.76;101424.16;4974269;28;20018;-68
2022/06/13 06:34:35;;;;;;;9.95;5.60;;;;;;;14.83;82.46;101433.34;4980614;28;20209;-68
2022/06/13 06:37:01;;;;;;;9.32;5.10;;;;;;;14.92;81.56;101435.13;4977540;28;20095;-68
2022/06/13 06:39:26;;;;;;;10.82;5.32;;;;;;;15.07;80.23;101438.13;4957856;28;20341;-67
2022/06/13 06:41:52;;;;;;;11.40;5.68;;;;;;;15.06;80.09;101442.63;4988462;28;20033;-70
2022/06/13 06:44:18;;;;;;;11.65;5.90;;;;;;;15.03;79.66;101437.59;4991287;28;20030;-68
2022/06/13 06:46:43;;;;;;;8.10;5.28;;;;;;;14.92;81.12;101433.31;4965894;28;20091;-68
2022/06/13 06:49:09;;;;;;;12.35;6.57;;;;;;;14.88;81.74;101433.75;4986118;28;20014;-67
2022/06/13 06:51:34;;;;;;;9.25;5.63;;;;;;;15.07;81.23;101444.31;4965790;28;20495;-68
2022/06/13 07:02:12;;;;;;;;;;;;;;;15.78;77.16;101442.66;4992971;28;20732;-67
2022/06/13 07:04:37;;;;;;;10.48;5.65;;;;;;;15.94;77.89;101439.31;4974104;28;19916;-68
2022/06/13 07:07:03;;;;;;;8.82;5.13;;;;;;;15.83;75.32;101436.91;4983531;28;20950;-68
2022/06/13 07:09:28;;;;;;;9.80;4.78;;;;;;;15.87;68.44;101432.94;4972336;28;20233;-67
2022/06/13 07:11:54;;;;;;;7.78;4.35;;;;;;;15.97;68.74;101433.66;4982094;28;20010;-68
2022/06/13 07:14:23;;;;;;;6.40;4.05;;;;;;;16.13;69.33;101443.66;4972868;28;20841;-68
2022/06/13 07:16:49;;;;;;;7.50;3.60;;;;;;;16.17;67.32;101438.81;4982036;28;20006;-68
2022/06/13 07:19:14;;;;;;;9.80;4.40;;;;;;;16.15;66.02;101438.16;4988500;28;20022;-68
2022/06/13 07:21:40;;;;;;;7.45;3.90;;;;;;;16.06;66.57;101426.56;4993080;28;20473;-68
2022/06/13 07:24:05;;;;;;;9.02;4.25;;;;;;;16.20;66.86;101443.00;4989610;28;20026;-68
2022/06/13 07:26:31;;;;;;;7.50;4.00;;;;;;;16.30;66.38;101441.06;4966317;28;20461;-66
2022/06/13 07:28:56;;;;;;;9.70;3.97;;;;;;;16.42;67.51;101442.47;4974246;28;20010;-68
2022/06/13 07:31:29;;;;;;;11.57;4.80;;;;;;;16.39;65.75;101441.97;4978899;28;20006;-68
2022/06/13 07:33:54;;;;;;;13.15;4.20;;;;;;;16.51;66.49;101446.03;4966581;28;20014;-68
2022/06/13 07:36:19;;;;;;;7.38;4.50;;;;;;;16.70;64.80;101455.66;4981001;28;20025;-68
2022/06/13 07:38:45;;;;;;;10.73;4.68;;;;;;;16.79;65.44;101446.69;4976245;28;20516;-68
2022/06/13 07:41:15;;;;;;;12.98;4.63;;;;;;;16.91;65.36;101451.78;4972643;28;20083;-68
2022/06/13 07:43:41;;;;;;;14.63;5.22;;;;;;;17.07;66.71;101454.50;4978265;28;20776;-68
2022/06/13 07:46:06;;;;;;;10.20;4.82;;;;;;;17.14;64.82;101463.53;4974215;28;20014;-68
2022/06/13 07:48:32;;;;;;;7.13;4.60;;;;;;;17.15;65.18;101464.41;4967071;28;20010;-67
2022/06/13 07:50:58;;;;;;;10.70;4.82;;;;;;;17.29;64.12;101477.13;4977993;28;20384;-64
2022/06/13 07:53:24;;;;;;;13.07;4.68;;;;;;;17.52;65.59;101474.66;4976500;28;20017;-67
2022/06/13 07:55:49;;;;;;;10.45;4.75;;;;;;;17.62;65.86;101462.97;4974801;28;20382;-67
2022/06/13 07:58:20;;;;;;;8.70;4.60;;;;;;;17.90;64.16;101468.03;4964149;28;20029;-68
2022/06/13 08:00:48;;;;;;;9.32;4.85;;;;;;;18.11;62.59;101471.06;4973242;28;20032;-70
2022/06/13 08:03:23;;;;;;;8.82;5.13;;;;;;;18.30;64.03;101471.69;4986271;28;20037;-67
2022/06/13 08:05:49;;;;;;;11.38;4.82;;;;;;;18.03;62.89;101481.75;4964201;28;20043;-69
2022/06/13 08:08:16;;;;;;;15.02;7.20;;;;;;;18.03;63.67;101468.38;4960101;28;20056;-68
2022/06/13 08:10:41;;;;;;;14.75;8.68;;;;;;;17.96;63.58;101472.72;4961127;27;20033;-68
2022/06/13 08:13:07;;;;;;;11.55;7.13;;;;;;;18.05;64.16;101477.09;4982365;28;20022;-67
2022/06/13 08:15:32;;;;;;;15.55;9.82;;;;;;;18.11;63.31;101483.63;4959539;27;21129;-68
2022/06/13 08:17:58;;;;;;;16.92;9.73;;;;;;;17.89;64.72;101485.91;4976349;28;20026;-68
2022/06/13 08:20:24;;;;;;;13.52;8.38;;;;;;;18.05;65.74;101485.13;4978782;27;20544;-67
2022/06/13 08:22:49;;;;;;;14.43;8.90;;;;;;;18.00;65.10;101490.13;4978430;28;20017;-68
2022/06/13 08:25:20;;;;;;;15.55;9.30;;;;;;;18.12;64.37;101488.81;4973991;27;20021;-69
2022/06/13 08:27:45;;;;;;;19.88;9.15;;;;;;;18.53;64.98;101491.41;4993579;28;20106;-69
2022/06/13 08:30:11;;;;;;;14.82;9.70;;;;;;;18.84;65.77;101487.97;4993223;28;20014;-68
2022/06/13 08:32:36;;;;;;;14.95;10.10;;;;;;;18.91;63.63;101496.22;4989647;28;20296;-70
2022/06/13 08:35:02;;;;;;;18.40;10.50;;;;;;;18.85;62.29;101492.34;4992634;28;20181;-69
2022/06/13 08:37:27;;;;;;;18.52;9.63;;;;;;;18.94;63.84;101493.16;4990256;28;20145;-68
2022/06/13 08:39:54;;;;;;;14.02;9.13;;;;;;;18.94;63.51;101487.81;4989346;28;20094;-69
2022/06/13 08:42:25;;;;;;;18.77;10.35;;;;;;;18.94;62.34;101503.91;4991016;28;20041;-69
2022/06/13 08:45:02;;;;;;;15.52;10.77;;;;;;;18.56;63.61;101498.28;4977050;28;20035;-69
2022/06/13 08:47:40;;;;;;;15.65;9.18;;;;;;;18.73;62.87;101493.72;4978276;28;20025;-68
2022/06/13 08:50:24;;;;;;;13.63;7.93;;;;;;;19.16;61.78;101494.25;4997684;28;20837;-68
2022/06/13 08:52:56;;;;;;;;;;;;;;;19.18;60.82;101510.19;4992352;28;20040;-68
2022/06/13 08:55:41;;;;;;;13.75;7.97;;;;;;;19.16;60.54;101496.09;4992547;27;19914;-68
2022/06/13 08:58:09;;;;;;;11.55;7.20;;;;;;;19.05;59.70;101513.44;4994222;28;20366;-68
2022/06/13 09:00:35;;;;;;;12.02;7.15;;;;;;;19.08;59.61;101509.53;5012719;28;20875;-67
2022/06/13 09:03:36;;;;;;;12.35;6.88;;;;;;;19.27;60.08;101509.09;4968502;28;20041;-69
2022/06/13 09:06:04;;;;;;;9.13;6.10;;;;;;;19.52;59.13;101512.50;4923322;28;20632;-67
2022/06/13 09:08:38;;;;;;;13.85;6.07;;;;;;;19.45;58.88;101508.84;4986643;28;20021;-70
2022/06/13 09:11:23;;;;;;;10.70;6.07;;;;;;;19.48;60.04;101503.13;4992084;28;20516;-68
2022/06/13 09:13:54;;;;;;;12.05;7.05;;;;;;;19.58;59.56;101510.13;4990547;28;20018;-69
2022/06/13 09:16:32;;;;;;;15.18;6.82;;;;;;;19.64;60.80;101509.41;4993443;28;20020;-68
2022/06/13 09:19:03;;;;;;;12.55;5.80;;;;;;;19.12;55.82;101514.41;4978306;28;20564;-67
2022/06/13 09:21:37;;;;;;;12.32;5.75;;;;;;;19.00;55.12;101513.09;4976773;28;20033;-68
2022/06/13 09:24:11;;;;;;;11.05;6.18;;;;;;;18.97;56.89;101518.81;4985676;28;20938;-67
2022/06/13 09:26:46;;;;;;;12.30;5.45;;;;;;;18.80;58.68;101513.47;4989502;28;20642;-67
2022/06/13 09:29:51;;;;;;;13.27;5.40;;;;;;;18.76;59.33;101520.19;4994927;28;20017;-69
2022/06/13 09:32:19;;;;;;;13.55;5.20;;;;;;;18.81;59.34;101522.34;4991427;28;20922;-68
2022/06/13 09:34:47;;;;;;;11.02;5.03;;;;;;;18.83;58.15;101529.22;4961764;28;20335;-69
2022/06/13 09:37:23;;;;;;;9.40;4.30;;;;;;;18.83;57.44;101523.84;4976435;28;20109;-69
2022/06/13 09:39:49;;;;;;;6.95;4.13;;;;;;;18.99;56.03;101530.19;4978543;28;21247;-70
2022/06/13 09:42:23;;;;;;;9.57;4.30;;;;;;;19.05;55.77;101526.84;4991404;28;20056;-68
2022/06/13 09:45:18;;;;;;;7.95;3.80;;;;;;;19.31;54.87;101520.34;5011769;28;20006;-67
2022/06/13 09:48:14;;;;;;;8.57;4.10;;;;;;;19.54;54.44;101526.59;5010380;28;20556;-68
2022/06/13 09:50:43;;;;;;;8.10;4.10;;;;;;;19.74;54.91;101526.97;5012539;28;20048;-68
2022/06/13 09:53:30;;;;;;;7.25;3.67;;;;;;;19.92;53.99;101520.47;4982120;28;20005;-69
2022/06/13 09:56:05;;;;;;;9.90;3.85;;;;;;;20.32;53.18;101525.69;4978487;28;20010;-67
2022/06/13 09:58:45;;;;;;;11.35;4.22;;;;;;;20.91;52.83;101536.56;4974763;28;20018;-69
2022/06/13 10:01:28;;;;;;;10.65;3.70;;;;;;;20.85;51.60;101529.19;4989487;28;20070;-68
2022/06/13 10:04:12;;;;;;;11.00;4.80;;;;;;;21.04;52.44;101529.66;4991033;28;20041;-68
2022/06/13 10:06:43;;;;;;;9.88;4.40;;;;;;;21.75;50.39;101523.69;4981037;28;20024;-68
2022/06/13 10:09:14;;;;;;;7.82;4.55;;;;;;;22.54;48.60;101530.81;4999120;28;20086;-69
2022/06/13 10:11:53;;;;;;;7.93;3.80;;;;;;;22.74;48.77;101522.00;5013736;28;20531;-69
2022/06/13 10:14:38;;;;;;;8.45;3.63;;;;;;;22.13;48.22;101523.41;5002570;28;20044;-69
2022/06/13 10:17:12;;;;;;;9.13;4.05;;;;;;;21.64;48.56;101524.19;4993368;28;20009;-67
2022/06/13 10:20:03;;;;;;;8.02;3.50;;;;;;;20.93;47.61;101526.41;4974654;28;20483;-67
2022/06/13 10:22:34;;;;;;;8.65;3.90;;;;;;;20.35;47.88;101538.78;4991964;28;20041;-67
2022/06/13 10:25:34;;;;;;;9.77;3.10;;;;;;;20.05;48.81;101534.16;5010956;28;20024;-68
2022/06/13 10:28:38;;;;;;;9.48;3.40;;;;;;;19.64;50.18;101547.84;4990284;28;20017;-69
2022/06/13 10:31:57;;;;;;;8.20;3.20;;;;;;;19.58;50.48;101534.28;5002474;27;20441;-69
2022/06/13 10:34:31;;;;;;;6.45;3.03;;;;;;;19.44;49.54;101557.34;4935508;28;20759;-67
2022/06/13 10:37:05;;;;;;;7.70;2.97;;;;;;;19.30;50.90;101548.19;4935116;28;20023;-68
2022/06/13 10:39:30;;;;;;;7.18;3.30;;;;;;;19.10;50.68;101548.59;4960317;28;20852;-68
2022/06/13 10:41:59;;;;;;;8.13;3.05;;;;;;;19.08;51.07;101542.59;4993026;28;20029;-67
2022/06/13 10:44:24;;;;;;;7.53;2.83;;;;;;;19.01;51.37;101546.97;4977227;28;20022;-68
2022/06/13 10:46:51;;;;;;;6.50;2.90;;;;;;;19.12;49.74;101549.28;4973257;28;20029;-68
2022/06/13 10:49:24;;;;;;;8.82;3.17;;;;;;;19.53;50.06;101541.03;4978548;28;20017;-68
2022/06/13 10:51:49;;;;;;;6.78;2.85;;;;;;;20.68;45.38;101543.88;4976020;28;20001;-68
2022/06/13 10:54:19;;;;;;;8.73;2.83;;;;;;;21.03;46.58;101541.47;4960953;28;20037;-68
2022/06/13 10:56:56;;;;;;;6.05;2.70;;;;;;;21.98;44.49;101544.22;4966554;28;20144;-68
2022/06/13 10:59:27;;;;;;;6.30;2.58;;;;;;;23.29;41.01;101536.41;4977096;28;20029;-68
2022/06/13 11:02:00;;;;;;;9.65;3.38;;;;;;;22.72;40.86;101527.59;4995930;28;20005;-69
2022/06/13 11:04:27;;;;;;;;;;;;;;;22.44;42.80;101538.41;4976081;28;20085;-68
2022/06/13 11:06:54;;;;;;;6.40;3.20;;;;;;;22.29;42.28;101531.22;4999322;28;19919;-68
2022/06/13 11:09:19;;;;;;;6.25;2.63;;;;;;;23.58;40.88;101534.44;4973024;28;20017;-69
2022/06/13 11:11:45;;;;;;;6.68;2.65;;;;;;;24.77;39.67;101531.97;5011476;27;20028;-67
2022/06/13 11:14:32;;;;;;;4.47;2.30;;;;;;;24.94;35.30;101521.50;4976289;28;20144;-68
2022/06/13 11:22:39;;;;;;;3.60;2.10;;;;;;;25.30;33.98;101524.72;4978958;28;20037;-68
2022/06/13 11:25:30;;;;;;;4.80;2.25;;;;;;;26.24;32.86;101522.22;4979665;28;20022;-69
2022/06/13 11:28:07;;;;;;;4.57;1.88;;;;;;;25.43;30.05;101518.44;4975868;28;20698;-67
2022/06/13 11:30:53;;;;;;;4.65;1.90;;;;;;;25.17;30.28;101525.59;4990549;28;20497;-68
2022/06/13 11:33:30;;;;;;;2.97;2.05;;;;;;;25.05;31.98;101519.22;4964152;28;20026;-69
2022/06/13 11:36:08;;;;;;;3.75;1.88;;;;;;;24.74;32.03;101521.59;4961936;28;20022;-68
2022/06/13 11:38:49;;;;;;;2.63;1.73;;;;;;;25.76;32.02;101517.38;4996916;28;20850;-70
2022/06/13 11:41:44;;;;;;;2.50;1.77;;;;;;;26.31;30.74;101523.00;4978517;27;20093;-68
2022/06/13 11:44:17;;;;;;;3.17;1.98;;;;;;;26.60;29.67;101523.34;4959111;28;20512;-68
2022/06/13 11:47:02;;;;;;;5.15;1.70;;;;;;;26.80;28.76;101511.47;4969768;28;20347;-68
2022/06/13 11:49:29;;;;;;;6.30;2.35;;;;;;;26.98;29.36;101526.94;4990452;28;20014;-69
2022/06/13 11:52:03;;;;;;;3.88;1.70;;;;;;;27.10;28.98;101533.25;4992818;28;20940;-69
2022/06/13 11:54:28;;;;;;;;;;;;;;;27.65;30.26;101534.22;4992141;28;20041;-69
2022/06/13 11:57:18;;;;;;;4.53;2.03;;;;;;;27.55;29.55;101518.47;4979779;28;20020;-69
2022/06/13 11:59:44;;;;;;;3.78;1.75;;;;;;;26.72;30.22;101526.19;5004983;28;20017;-69
2022/06/13 12:02:21;;;;;;;2.20;1.55;;;;;;;26.26;31.03;101539.13;4993212;28;20202;-70
2022/06/13 12:04:46;;;;;;;3.55;1.83;;;;;;;26.77;29.71;101528.22;4970786;28;20205;-68
2022/06/13 12:07:31;;;;;;;4.85;1.88;;;;;;;26.81;28.57;101529.44;4977954;28;20682;-69